Time;durP1;ratioP1;P1;durP2;ratioP2;P2;SDS_P1;SDS_P2;PMS_P1;PMS_P2;Temp;Humidity;BMP_temperature;BMP_pressure;BME280_temperature;BME280_humidity;BME280_pressure;Samples;Min_cycle;Max_cycle;Signal;HPM_P1;HPM_P2
2023/10/10 00:00:23;;;;;;;14.90;9.00;;;;;;;;;;6316076;28;20055;-78
2023/10/10 00:03:27;;;;;;;11.82;9.48;;;;;;;;;;6321355;28;20043;-78
2023/10/10 00:06:28;;;;;;;13.65;9.05;;;;;;;;;;6330123;28;20048;-77
2023/10/10 00:09:30;;;;;;;14.13;9.45;;;;;;;;;;6330936;28;20343;-78
2023/10/10 00:12:35;;;;;;;12.98;9.18;;;;;;;;;;6328978;28;20386;-78
2023/10/10 00:15:39;;;;;;;13.80;9.48;;;;;;;;;;6307348;28;20075;-78
2023/10/10 00:18:43;;;;;;;14.50;9.10;;;;;;;;;;6307400;28;21055;-78
2023/10/10 00:21:46;;;;;;;15.23;9.13;;;;;;;;;;6307465;28;20112;-78
2023/10/10 00:24:48;;;;;;;15.25;9.45;;;;;;;;;;6324794;28;20337;-78
2023/10/10 00:27:58;;;;;;;15.30;9.40;;;;;;;;;;6318419;28;20048;-77
2023/10/10 00:31:03;;;;;;;16.75;9.32;;;;;;;;;;6294001;28;20068;-78
2023/10/10 00:34:07;;;;;;;14.18;8.80;;;;;;;;;;6305555;28;20056;-78
2023/10/10 00:37:11;;;;;;;15.55;9.20;;;;;;;;;;6305417;28;20247;-76
2023/10/10 00:40:25;;;;;;;14.48;8.95;;;;;;;;;;6301568;28;20041;-78
2023/10/10 00:43:31;;;;;;;14.40;8.73;;;;;;;;;;6306387;28;20036;-77
2023/10/10 00:46:33;;;;;;;15.63;9.48;;;;;;;;;;6305290;28;20283;-78
2023/10/10 00:49:36;;;;;;;14.70;8.77;;;;;;;;;;6306976;28;20105;-77
2023/10/10 00:52:38;;;;;;;14.45;8.90;;;;;;;;;;6306980;28;20052;-78
2023/10/10 00:55:40;;;;;;;12.05;8.60;;;;;;;;;;6305052;28;20056;-78
2023/10/10 00:58:48;;;;;;;14.52;9.00;;;;;;;;;;6321912;28;20056;-77
2023/10/10 01:01:50;;;;;;;11.98;8.07;;;;;;;;;;6305366;28;20048;-79
2023/10/10 01:04:57;;;;;;;15.75;8.52;;;;;;;;;;6308752;28;20048;-79
2023/10/10 01:07:59;;;;;;;11.73;8.02;;;;;;;;;;6330313;28;20466;-78
2023/10/10 01:11:04;;;;;;;12.43;8.82;;;;;;;;;;6329072;28;20244;-76
2023/10/10 01:14:07;;;;;;;15.70;8.50;;;;;;;;;;6330062;28;20313;-78
2023/10/10 01:17:12;;;;;;;12.15;8.02;;;;;;;;;;6329533;28;20349;-76
2023/10/10 01:20:25;;;;;;;15.27;8.55;;;;;;;;;;6330327;28;20052;-79
2023/10/10 01:23:29;;;;;;;13.35;8.10;;;;;;;;;;6318705;28;20089;-76
2023/10/10 01:26:33;;;;;;;18.80;8.75;;;;;;;;;;6329577;28;20060;-79
2023/10/10 01:29:40;;;;;;;13.68;8.38;;;;;;;;;;6330738;28;20070;-79
2023/10/10 01:32:50;;;;;;;19.15;9.52;;;;;;;;;;6321661;28;20052;-78
2023/10/10 01:35:55;;;;;;;13.75;8.57;;;;;;;;;;6318571;28;20232;-78
2023/10/10 01:39:19;;;;;;;14.35;8.45;;;;;;;;;;6313195;28;20040;-78
2023/10/10 01:42:31;;;;;;;18.65;8.88;;;;;;;;;;6308148;28;20051;-77
2023/10/10 01:45:37;;;;;;;15.75;9.75;;;;;;;;;;6314900;28;20086;-78
2023/10/10 01:48:43;;;;;;;15.57;9.18;;;;;;;;;;6310143;28;20232;-77
2023/10/10 01:51:45;;;;;;;15.05;9.25;;;;;;;;;;6304422;28;20071;-77
2023/10/10 01:54:53;;;;;;;15.98;9.07;;;;;;;;;;6304504;28;20056;-78
2023/10/10 01:57:57;;;;;;;14.98;9.20;;;;;;;;;;6311776;28;20404;-78
2023/10/10 02:00:59;;;;;;;14.57;9.38;;;;;;;;;;6305128;28;20053;-78
2023/10/10 02:04:05;;;;;;;14.82;9.40;;;;;;;;;;6304745;28;20124;-78
2023/10/10 02:07:14;;;;;;;11.95;9.20;;;;;;;;;;6325498;28;20047;-78
2023/10/10 02:10:18;;;;;;;17.80;9.93;;;;;;;;;;6304996;28;20047;-78
2023/10/10 02:13:22;;;;;;;17.45;9.20;;;;;;;;;;6301033;28;20052;-77
2023/10/10 02:16:25;;;;;;;15.07;10.07;;;;;;;;;;6320212;28;20045;-78
2023/10/10 02:19:32;;;;;;;16.83;9.63;;;;;;;;;;6311148;28;20047;-78
2023/10/10 02:22:47;;;;;;;14.75;9.60;;;;;;;;;;6312837;28;20044;-78
2023/10/10 02:25:53;;;;;;;14.38;9.85;;;;;;;;;;6309964;28;20052;-77
2023/10/10 02:29:17;;;;;;;14.88;9.82;;;;;;;;;;6312902;28;20052;-77
2023/10/10 02:32:20;;;;;;;15.80;10.13;;;;;;;;;;6335502;28;20217;-78
2023/10/10 02:35:27;;;;;;;15.00;10.45;;;;;;;;;;6332930;28;20040;-76
2023/10/10 02:38:34;;;;;;;15.07;10.05;;;;;;;;;;6332216;28;20091;-77
2023/10/10 02:41:39;;;;;;;16.42;10.48;;;;;;;;;;6309861;28;20056;-78
2023/10/10 02:44:52;;;;;;;15.77;9.63;;;;;;;;;;6308095;28;20071;-76
2023/10/10 02:47:54;;;;;;;17.07;10.37;;;;;;;;;;6309497;28;20112;-77
2023/10/10 02:51:02;;;;;;;16.15;9.68;;;;;;;;;;6312651;28;20115;-78
2023/10/10 02:54:20;;;;;;;17.02;9.68;;;;;;;;;;6335770;28;20072;-77
2023/10/10 02:57:29;;;;;;;17.40;9.40;;;;;;;;;;6322861;28;20111;-78
2023/10/10 03:00:34;;;;;;;17.15;9.25;;;;;;;;;;6324883;28;20047;-77
2023/10/10 03:03:40;;;;;;;14.73;8.85;;;;;;;;;;6321636;28;20048;-77
2023/10/10 03:06:44;;;;;;;20.08;9.18;;;;;;;;;;6328198;28;20057;-78
2023/10/10 03:10:14;;;;;;;17.00;10.00;;;;;;;;;;6319873;28;20054;-78
2023/10/10 03:13:31;;;;;;;15.85;9.30;;;;;;;;;;6312965;28;20400;-77
2023/10/10 03:16:44;;;;;;;17.27;9.02;;;;;;;;;;6332997;28;20052;-77
2023/10/10 03:19:50;;;;;;;16.58;8.82;;;;;;;;;;6320676;28;20056;-77
2023/10/10 03:23:18;;;;;;;15.32;8.38;;;;;;;;;;6310981;28;20070;-77
2023/10/10 03:26:32;;;;;;;18.38;8.55;;;;;;;;;;6316057;28;20076;-77
2023/10/10 03:29:47;;;;;;;20.35;9.68;;;;;;;;;;6307055;28;20059;-77
2023/10/10 03:36:23;;;;;;;15.82;8.85;;;;;;;;;;6328234;28;20100;-78
2023/10/10 03:39:26;;;;;;;16.63;8.85;;;;;;;;;;6333624;28;20051;-77
2023/10/10 05:25:50;;;;;;;20.48;11.32;;;;;;;;;;6330888;28;20048;-76
2023/10/10 05:28:52;;;;;;;24.33;11.82;;;;;;;;;;6308752;28;20048;-77
2023/10/10 05:31:59;;;;;;;26.50;12.02;;;;;;;;;;6317412;28;20055;-78
2023/10/10 05:35:07;;;;;;;23.35;11.52;;;;;;;;;;6324581;28;20081;-78
2023/10/10 05:38:15;;;;;;;19.02;11.40;;;;;;;;;;6330195;28;20259;-79
2023/10/10 05:41:19;;;;;;;21.80;12.23;;;;;;;;;;6322163;28;20079;-78
2023/10/10 05:44:21;;;;;;;22.88;13.65;;;;;;;;;;6304250;28;20056;-78
2023/10/10 05:47:24;;;;;;;23.63;13.85;;;;;;;;;;6301271;28;20083;-77
2023/10/10 05:50:27;;;;;;;22.60;13.52;;;;;;;;;;6315865;28;20059;-78
2023/10/10 05:53:32;;;;;;;26.47;14.97;;;;;;;;;;6314842;28;20056;-79
2023/10/10 05:56:37;;;;;;;20.92;13.57;;;;;;;;;;6327486;28;20903;-77
2023/10/10 05:59:39;;;;;;;22.75;13.80;;;;;;;;;;6328839;28;20064;-78
2023/10/10 06:02:42;;;;;;;22.67;13.98;;;;;;;;;;6326161;28;20055;-77
2023/10/10 06:05:45;;;;;;;28.70;13.88;;;;;;;;;;6316583;28;20057;-79
2023/10/10 06:08:46;;;;;;;27.83;13.25;;;;;;;;;;6306221;28;20048;-77
2023/10/10 06:11:49;;;;;;;19.33;12.68;;;;;;;;;;6328220;28;20055;-78
2023/10/10 06:14:54;;;;;;;22.40;12.77;;;;;;;;;;6308122;28;20056;-77
2023/10/10 06:17:57;;;;;;;22.42;12.80;;;;;;;;;;6304806;28;20067;-78
2023/10/10 06:21:03;;;;;;;18.98;12.35;;;;;;;;;;6302477;28;20063;-78
2023/10/10 06:24:08;;;;;;;24.13;13.55;;;;;;;;;;6304483;28;20090;-78
2023/10/10 06:27:13;;;;;;;18.60;13.07;;;;;;;;;;6321100;28;20356;-78
2023/10/10 06:30:18;;;;;;;23.70;12.43;;;;;;;;;;6313005;28;20052;-77
2023/10/10 06:33:27;;;;;;;21.63;12.75;;;;;;;;;;6311988;28;20052;-77
2023/10/10 06:36:37;;;;;;;25.13;12.43;;;;;;;;;;6323432;28;20056;-77
2023/10/10 06:39:54;;;;;;;24.55;12.82;;;;;;;;;;6305897;28;20086;-78
2023/10/10 06:42:57;;;;;;;22.98;13.73;;;;;;;;;;6307314;28;20057;-78
2023/10/10 06:45:58;;;;;;;24.90;12.65;;;;;;;;;;6304474;28;20298;-77
2023/10/10 06:49:04;;;;;;;28.45;14.57;;;;;;;;;;6304240;28;20060;-78
2023/10/10 06:52:06;;;;;;;23.70;12.52;;;;;;;;;;6303471;28;20067;-77
2023/10/10 06:55:10;;;;;;;22.25;13.02;;;;;;;;;;6319906;28;20052;-77
2023/10/10 06:58:16;;;;;;;21.08;13.15;;;;;;;;;;6304706;28;20232;-78
2023/10/10 07:01:19;;;;;;;23.58;12.50;;;;;;;;;;6305484;28;20135;-78
2023/10/10 07:04:21;;;;;;;24.45;13.63;;;;;;;;;;6308051;28;20053;-77
2023/10/10 07:07:26;;;;;;;22.55;12.95;;;;;;;;;;6308392;28;20111;-77
2023/10/10 07:10:34;;;;;;;22.38;13.07;;;;;;;;;;6306443;28;20044;-78
2023/10/10 07:13:43;;;;;;;19.75;12.93;;;;;;;;;;6308367;28;20060;-77
2023/10/10 07:16:45;;;;;;;18.42;11.52;;;;;;;;;;6307567;28;20048;-78
2023/10/10 07:21:04;;;;;;;20.67;12.30;;;;;;;;;;6317599;28;20056;-77
2023/10/10 07:23:16;;;;;;;21.02;11.98;;;;;;;;;;6325776;28;20056;-76
2023/10/10 07:26:20;;;;;;;18.55;12.10;;;;;;;;;;6309729;28;20126;-77
2023/10/10 07:29:27;;;;;;;21.45;11.48;;;;;;;;;;6308512;28;20109;-78
2023/10/10 07:32:29;;;;;;;21.30;12.70;;;;;;;;;;6306724;28;20120;-78
2023/10/10 07:35:36;;;;;;;19.45;11.60;;;;;;;;;;6307794;28;20098;-78
2023/10/10 07:38:37;;;;;;;28.00;14.15;;;;;;;;;;6307378;28;20225;-78
2023/10/10 07:41:45;;;;;;;22.45;11.57;;;;;;;;;;6308288;28;20040;-78
2023/10/10 07:44:48;;;;;;;24.25;11.52;;;;;;;;;;6307420;28;20094;-78
2023/10/10 07:51:09;;;;;;;20.73;12.15;;;;;;;;;;6307918;28;20094;-77
2023/10/10 07:54:12;;;;;;;20.48;11.75;;;;;;;;;;6323879;28;20218;-74
2023/10/10 07:57:17;;;;;;;27.75;12.20;;;;;;;;;;6333938;28;20085;-77
2023/10/10 08:00:26;;;;;;;21.67;11.75;;;;;;;;;;6331704;28;20056;-77
2023/10/10 08:03:31;;;;;;;21.85;13.23;;;;;;;;;;6309247;28;20044;-77
2023/10/10 08:06:33;;;;;;;22.67;12.82;;;;;;;;;;6324082;28;20059;-78
2023/10/10 08:09:37;;;;;;;29.63;13.35;;;;;;;;;;6307204;28;20137;-76
2023/10/10 08:12:39;;;;;;;27.40;12.57;;;;;;;;;;6305576;28;20111;-78
2023/10/10 08:15:51;;;;;;;24.52;12.52;;;;;;;;;;6329169;28;20067;-77
2023/10/10 08:18:53;;;;;;;26.63;11.88;;;;;;;;;;6325387;28;20052;-77
2023/10/10 08:21:55;;;;;;;24.95;11.25;;;;;;;;;;6320502;28;20058;-78
2023/10/10 08:24:57;;;;;;;24.15;11.85;;;;;;;;;;6309629;28;20050;-77
2023/10/10 08:27:59;;;;;;;24.20;12.57;;;;;;;;;;6319363;28;20064;-77
2023/10/10 08:31:02;;;;;;;29.07;13.70;;;;;;;;;;6303220;28;20094;-77
2023/10/10 08:34:04;;;;;;;22.58;12.05;;;;;;;;;;6318662;28;20062;-77
2023/10/10 08:37:09;;;;;;;27.33;11.77;;;;;;;;;;6313033;28;20297;-77
2023/10/10 08:40:17;;;;;;;25.10;13.50;;;;;;;;;;6313171;28;20478;-77
2023/10/10 08:43:19;;;;;;;23.98;13.07;;;;;;;;;;6324316;28;20130;-77
2023/10/10 08:46:26;;;;;;;27.20;12.73;;;;;;;;;;6312761;28;20052;-77
2023/10/10 08:49:28;;;;;;;22.02;14.13;;;;;;;;;;6321417;28;20213;-78
2023/10/10 08:52:32;;;;;;;30.52;13.55;;;;;;;;;;6326716;28;20067;-77
2023/10/10 08:55:34;;;;;;;24.02;13.00;;;;;;;;;;6331095;28;20109;-76
2023/10/10 08:58:36;;;;;;;26.33;12.20;;;;;;;;;;6326240;28;20079;-77
2023/10/10 09:01:39;;;;;;;22.75;11.95;;;;;;;;;;6330143;28;20083;-77
2023/10/10 09:04:41;;;;;;;25.75;12.27;;;;;;;;;;6330007;28;20067;-76
2023/10/10 09:07:43;;;;;;;22.63;12.30;;;;;;;;;;6331395;28;20162;-77
2023/10/10 09:10:46;;;;;;;24.38;8.73;;;;;;;;;;6328787;28;20496;-77
2023/10/10 09:13:51;;;;;;;20.88;5.97;;;;;;;;;;6318512;28;20053;-77
2023/10/10 09:16:54;;;;;;;20.90;6.35;;;;;;;;;;6299163;28;20064;-76
2023/10/10 09:19:57;;;;;;;17.75;5.90;;;;;;;;;;6306516;28;20345;-76
2023/10/10 09:23:04;;;;;;;;;;;;;;;;;;6306674;28;20078;-77
2023/10/10 09:26:18;;;;;;;21.05;6.00;;;;;;;;;;6316031;28;19966;-75
2023/10/10 09:29:30;;;;;;;18.35;6.50;;;;;;;;;;6328990;28;20055;-77
2023/10/10 09:32:36;;;;;;;19.52;6.60;;;;;;;;;;6329581;28;20051;-77
2023/10/10 09:35:39;;;;;;;21.38;6.18;;;;;;;;;;6330296;28;20381;-77
2023/10/10 09:38:45;;;;;;;21.85;5.88;;;;;;;;;;6329469;28;20056;-77
2023/10/10 09:45:27;;;;;;;15.77;5.90;;;;;;;;;;6279901;27;20605;-77
2023/10/10 09:48:28;;;;;;;23.55;7.57;;;;;;;;;;6273914;28;20211;-78
2023/10/10 09:54:55;;;;;;;23.00;5.75;;;;;;;;;;6274503;28;20064;-78
2023/10/10 09:58:00;;;;;;;12.38;5.18;;;;;;;;;;6277340;28;20104;-78
2023/10/10 10:01:18;;;;;;;17.85;5.38;;;;;;;;;;6274650;28;20128;-78
2023/10/10 10:04:25;;;;;;;19.80;5.40;;;;;;;;;;6252906;28;20297;-77
2023/10/10 10:07:41;;;;;;;20.73;5.05;;;;;;;;;;6248146;28;20049;-77
2023/10/10 10:10:49;;;;;;;20.55;5.85;;;;;;;;;;6245242;28;20057;-78
2023/10/10 10:13:57;;;;;;;24.90;6.05;;;;;;;;;;6264124;28;20346;-77
2023/10/10 10:17:12;;;;;;;14.15;5.60;;;;;;;;;;6264631;28;20061;-77
2023/10/10 10:20:24;;;;;;;15.63;5.63;;;;;;;;;;6267776;28;20056;-78
2023/10/10 10:23:33;;;;;;;19.27;5.78;;;;;;;;;;6265570;28;20465;-77
2023/10/10 10:26:43;;;;;;;15.88;5.25;;;;;;;;;;6241974;28;20330;-77
2023/10/10 10:29:53;;;;;;;18.13;5.57;;;;;;;;;;6243752;28;20053;-76
2023/10/10 10:32:58;;;;;;;15.65;5.35;;;;;;;;;;6247394;28;20242;-77
2023/10/10 10:36:14;;;;;;;17.42;5.45;;;;;;;;;;6241535;28;20053;-78
2023/10/10 10:39:25;;;;;;;18.35;4.68;;;;;;;;;;6244044;28;20286;-77
2023/10/10 10:42:25;;;;;;;15.77;5.38;;;;;;;;;;6269280;28;20064;-77
2023/10/10 10:45:34;;;;;;;16.25;5.35;;;;;;;;;;6261273;28;20050;-78
2023/10/10 10:48:37;;;;;;;12.50;5.38;;;;;;;;;;6253510;28;20057;-77
2023/10/10 10:51:42;;;;;;;13.95;5.07;;;;;;;;;;6241696;28;20054;-77
2023/10/10 10:54:45;;;;;;;16.50;5.72;;;;;;;;;;6243035;28;20053;-78
2023/10/10 10:57:47;;;;;;;14.27;4.95;;;;;;;;;;6225246;28;20053;-79
2023/10/10 11:01:00;;;;;;;14.27;5.05;;;;;;;;;;6227762;28;20046;-80
2023/10/10 11:04:05;;;;;;;14.07;5.32;;;;;;;;;;6231152;28;20050;-78
2023/10/10 11:07:07;;;;;;;14.70;4.88;;;;;;;;;;6232224;28;20045;-75
2023/10/10 11:10:10;;;;;;;16.88;4.75;;;;;;;;;;6229274;28;20081;-78
2023/10/10 11:13:13;;;;;;;14.40;4.93;;;;;;;;;;6226622;28;20053;-78
2023/10/10 11:16:15;;;;;;;13.88;3.95;;;;;;;;;;6227294;28;20057;-78
2023/10/10 11:19:25;;;;;;;14.65;3.80;;;;;;;;;;6226928;28;20045;-77
2023/10/10 11:22:39;;;;;;;11.73;3.70;;;;;;;;;;6229774;28;20101;-78
2023/10/10 11:26:00;;;;;;;11.95;4.25;;;;;;;;;;6228557;28;20050;-79
2023/10/10 11:29:02;;;;;;;15.55;3.78;;;;;;;;;;6226288;28;20058;-78
2023/10/10 11:32:07;;;;;;;13.13;3.75;;;;;;;;;;6227555;28;20087;-78
2023/10/10 11:35:22;;;;;;;14.68;4.28;;;;;;;;;;6224497;28;20062;-78
2023/10/10 11:38:36;;;;;;;15.68;3.78;;;;;;;;;;6225972;28;20358;-78
2023/10/10 11:41:38;;;;;;;17.35;4.72;;;;;;;;;;6227936;28;20063;-78
2023/10/10 11:44:41;;;;;;;13.70;4.60;;;;;;;;;;6232035;28;20056;-78
2023/10/10 11:47:44;;;;;;;14.65;4.00;;;;;;;;;;6232963;28;20298;-79
2023/10/10 11:50:48;;;;;;;14.18;4.00;;;;;;;;;;6229706;28;20057;-77
2023/10/10 11:53:54;;;;;;;14.80;4.55;;;;;;;;;;6240619;28;20069;-78
2023/10/10 11:56:56;;;;;;;17.92;4.90;;;;;;;;;;6231973;28;20076;-78
2023/10/10 12:00:11;;;;;;;;;;;;;;;;;;6233872;28;20297;-79
2023/10/10 12:03:13;;;;;;;13.80;4.63;;;;;;;;;;6227316;28;20142;-74
2023/10/10 12:06:17;;;;;;;16.08;4.53;;;;;;;;;;6228793;28;20374;-78
2023/10/10 12:09:19;;;;;;;13.88;5.30;;;;;;;;;;6222594;28;20089;-78
2023/10/10 12:12:23;;;;;;;14.27;4.95;;;;;;;;;;6226433;28;20362;-77
2023/10/10 12:15:25;;;;;;;20.60;4.90;;;;;;;;;;6224284;28;20060;-77
2023/10/10 12:18:30;;;;;;;12.07;4.32;;;;;;;;;;6244558;28;20049;-78
2023/10/10 12:21:33;;;;;;;16.10;4.25;;;;;;;;;;6234428;28;20061;-79
2023/10/10 12:24:35;;;;;;;16.20;4.82;;;;;;;;;;6254792;28;20053;-78
2023/10/10 12:27:37;;;;;;;15.38;4.45;;;;;;;;;;6250828;28;20104;-78
2023/10/10 12:30:40;;;;;;;18.20;4.22;;;;;;;;;;6248895;28;20056;-78
2023/10/10 12:33:45;;;;;;;13.07;4.65;;;;;;;;;;6247545;28;20245;-77
2023/10/10 12:36:49;;;;;;;15.27;4.88;;;;;;;;;;6247653;28;20045;-78
2023/10/10 12:39:51;;;;;;;16.17;5.25;;;;;;;;;;6248058;28;20046;-78
2023/10/10 12:42:53;;;;;;;19.48;5.85;;;;;;;;;;6252546;28;20329;-78
2023/10/10 12:45:55;;;;;;;12.02;4.68;;;;;;;;;;6256947;28;20053;-78
2023/10/10 12:48:56;;;;;;;13.52;4.63;;;;;;;;;;6256068;28;20286;-78
2023/10/10 12:52:01;;;;;;;16.63;4.80;;;;;;;;;;6247843;28;20346;-78
2023/10/10 12:55:09;;;;;;;17.05;4.82;;;;;;;;;;6251034;28;20096;-79
2023/10/10 12:58:15;;;;;;;17.75;5.53;;;;;;;;;;6252435;28;20060;-77
2023/10/10 13:01:22;;;;;;;14.23;4.70;;;;;;;;;;6251425;28;20046;-78
2023/10/10 13:04:28;;;;;;;16.27;4.88;;;;;;;;;;6247579;28;20057;-75
2023/10/10 13:07:35;;;;;;;14.50;4.35;;;;;;;;;;6250904;28;20099;-79
2023/10/10 13:10:37;;;;;;;12.23;4.90;;;;;;;;;;6248645;28;20072;-79
2023/10/10 13:13:45;;;;;;;14.43;4.90;;;;;;;;;;6246102;28;20053;-78
2023/10/10 13:16:53;;;;;;;13.35;4.65;;;;;;;;;;6254172;28;20246;-78
2023/10/10 13:19:58;;;;;;;15.02;4.30;;;;;;;;;;6254167;28;20108;-77
2023/10/10 13:23:02;;;;;;;13.65;5.15;;;;;;;;;;6260099;28;20057;-77
2023/10/10 13:26:06;;;;;;;14.52;4.60;;;;;;;;;;6250068;28;20052;-78
2023/10/10 13:29:08;;;;;;;16.25;4.78;;;;;;;;;;6250194;28;20297;-77
2023/10/10 13:32:10;;;;;;;11.85;4.60;;;;;;;;;;6248879;28;20330;-79
2023/10/10 13:35:12;;;;;;;15.32;4.53;;;;;;;;;;6248830;28;20057;-78
2023/10/10 13:38:15;;;;;;;13.50;4.60;;;;;;;;;;6254026;28;20056;-78
2023/10/10 13:41:18;;;;;;;15.02;5.13;;;;;;;;;;6254550;28;20067;-80
2023/10/10 13:44:20;;;;;;;16.33;5.00;;;;;;;;;;6252617;28;20084;-78
2023/10/10 13:47:24;;;;;;;15.63;4.82;;;;;;;;;;6251530;28;20057;-75
2023/10/10 13:50:31;;;;;;;14.40;4.32;;;;;;;;;;6250286;28;20134;-79
2023/10/10 13:53:34;;;;;;;18.63;4.63;;;;;;;;;;6251567;28;20084;-79
2023/10/10 13:56:36;;;;;;;11.18;4.57;;;;;;;;;;6255241;28;20104;-78
2023/10/10 13:59:38;;;;;;;11.68;4.18;;;;;;;;;;6232665;28;20073;-78
2023/10/10 14:02:40;;;;;;;11.95;4.60;;;;;;;;;;6228882;28;20088;-78
2023/10/10 14:06:00;;;;;;;11.57;4.65;;;;;;;;;;6228195;28;20054;-78
2023/10/10 14:09:03;;;;;;;14.88;4.60;;;;;;;;;;6219876;28;20065;-78
2023/10/10 14:12:08;;;;;;;17.30;4.97;;;;;;;;;;6226259;28;20054;-78
2023/10/10 14:15:11;;;;;;;16.17;5.00;;;;;;;;;;6231222;28;20062;-78
2023/10/10 14:18:13;;;;;;;13.32;4.25;;;;;;;;;;6229128;28;20120;-77
2023/10/10 14:21:17;;;;;;;9.52;3.72;;;;;;;;;;6208770;28;20049;-78
2023/10/10 14:24:20;;;;;;;17.23;4.57;;;;;;;;;;6224881;28;20055;-77
2023/10/10 14:27:23;;;;;;;66.97;50.42;;;;;;;;;;6244666;28;20049;-76
2023/10/10 14:30:24;;;;;;;60.05;41.50;;;;;;;;;;6239778;28;20069;-79
2023/10/10 14:33:26;;;;;;;;;;;;;;;;;;6232586;28;20333;-79
2023/10/10 14:36:28;;;;;;;15.23;5.05;;;;;;;;;;6235501;28;19928;-77
2023/10/10 14:39:31;;;;;;;11.80;4.40;;;;;;;;;;6233009;28;20053;-79
2023/10/10 14:42:33;;;;;;;12.18;4.50;;;;;;;;;;6226521;28;20061;-79
2023/10/10 14:45:36;;;;;;;14.98;4.63;;;;;;;;;;6222845;28;20331;-78
2023/10/10 14:48:37;;;;;;;15.15;5.35;;;;;;;;;;6224428;28;20150;-80
2023/10/10 14:51:40;;;;;;;25.55;4.53;;;;;;;;;;6225498;28;20334;-78
2023/10/10 14:54:48;;;;;;;21.25;5.00;;;;;;;;;;6232414;28;20128;-77
2023/10/10 14:57:54;;;;;;;23.65;5.13;;;;;;;;;;6228373;28;20407;-79
2023/10/10 15:00:57;;;;;;;14.55;4.78;;;;;;;;;;6237094;28;20487;-79
2023/10/10 15:03:59;;;;;;;16.17;5.60;;;;;;;;;;6237311;28;20056;-78
2023/10/10 15:07:04;;;;;;;13.45;4.82;;;;;;;;;;6225165;28;20298;-77
2023/10/10 15:10:07;;;;;;;14.43;4.55;;;;;;;;;;6231168;28;20101;-78
2023/10/10 15:13:10;;;;;;;11.85;5.45;;;;;;;;;;6229088;28;20050;-79
2023/10/10 15:16:12;;;;;;;13.52;4.30;;;;;;;;;;6235104;28;20063;-79
2023/10/10 15:19:14;;;;;;;18.90;5.30;;;;;;;;;;6227891;28;20197;-79
2023/10/10 15:22:17;;;;;;;14.77;4.82;;;;;;;;;;6229606;28;20050;-78
2023/10/10 15:25:21;;;;;;;16.52;4.70;;;;;;;;;;6223247;28;20053;-78
2023/10/10 15:28:24;;;;;;;17.40;4.93;;;;;;;;;;6223932;28;20128;-77
2023/10/10 15:31:27;;;;;;;13.02;4.13;;;;;;;;;;6229486;28;20064;-78
2023/10/10 15:34:30;;;;;;;15.35;5.18;;;;;;;;;;6224925;28;20057;-79
2023/10/10 15:37:32;;;;;;;18.10;4.75;;;;;;;;;;6229871;28;20342;-80
2023/10/10 15:40:39;;;;;;;19.17;5.13;;;;;;;;;;6232856;28;20220;-79
2023/10/10 15:43:46;;;;;;;14.88;4.93;;;;;;;;;;6228400;28;20054;-79
2023/10/10 15:46:53;;;;;;;20.63;5.70;;;;;;;;;;6222783;28;20125;-80
2023/10/10 15:50:00;;;;;;;14.82;4.65;;;;;;;;;;6227582;28;20053;-79
2023/10/10 15:53:01;;;;;;;16.58;5.25;;;;;;;;;;6231336;28;20266;-80
2023/10/10 15:56:08;;;;;;;13.88;4.45;;;;;;;;;;6226245;28;20243;-79
2023/10/10 15:59:10;;;;;;;16.40;4.95;;;;;;;;;;6228130;28;20227;-80
2023/10/10 16:02:13;;;;;;;13.55;5.38;;;;;;;;;;6232369;28;20172;-80
2023/10/10 16:05:16;;;;;;;18.23;5.72;;;;;;;;;;6224462;28;20053;-79
2023/10/10 16:08:17;;;;;;;33.40;20.40;;;;;;;;;;6226638;28;20226;-81
2023/10/10 16:11:22;;;;;;;146.32;95.53;;;;;;;;;;6230785;28;20063;-80
2023/10/10 16:14:24;;;;;;;204.63;147.23;;;;;;;;;;6232307;28;20058;-79
2023/10/10 16:17:28;;;;;;;40.70;18.58;;;;;;;;;;6234014;28;20042;-81
2023/10/10 16:20:35;;;;;;;15.77;6.15;;;;;;;;;;6223739;28;20050;-81
2023/10/10 16:23:43;;;;;;;13.70;5.15;;;;;;;;;;6223854;28;20312;-80
2023/10/10 16:26:47;;;;;;;17.73;5.47;;;;;;;;;;6227456;28;20082;-81
2023/10/10 16:29:55;;;;;;;15.32;4.38;;;;;;;;;;6225938;28;20065;-79
2023/10/10 16:32:56;;;;;;;16.98;5.00;;;;;;;;;;6232541;28;20056;-80
2023/10/10 16:35:59;;;;;;;28.83;5.40;;;;;;;;;;6227947;28;20325;-80
2023/10/10 16:39:03;;;;;;;21.60;5.20;;;;;;;;;;6225768;28;20278;-80
2023/10/10 16:42:06;;;;;;;16.98;4.78;;;;;;;;;;6230783;28;20053;-81
2023/10/10 16:45:10;;;;;;;21.67;6.35;;;;;;;;;;6222849;28;20042;-81
2023/10/10 16:48:12;;;;;;;19.60;5.70;;;;;;;;;;6225604;28;20141;-80
2023/10/10 16:51:16;;;;;;;14.17;5.67;;;;;;;;;;6218855;28;20084;-81
2023/10/10 16:54:18;;;;;;;12.88;5.53;;;;;;;;;;6225508;28;20345;-77
2023/10/10 16:57:22;;;;;;;16.30;5.45;;;;;;;;;;6224017;28;20049;-79
2023/10/10 17:00:24;;;;;;;19.42;5.43;;;;;;;;;;6224326;28;20046;-81
2023/10/10 17:03:26;;;;;;;18.60;5.13;;;;;;;;;;6229570;28;20053;-78
2023/10/10 17:06:31;;;;;;;15.27;5.50;;;;;;;;;;6243003;28;20061;-80
2023/10/10 17:09:35;;;;;;;22.77;6.50;;;;;;;;;;6219049;28;20061;-80
2023/10/10 17:12:42;;;;;;;20.85;5.47;;;;;;;;;;6225890;28;20064;-81
2023/10/10 17:15:47;;;;;;;30.73;6.32;;;;;;;;;;6247904;28;20407;-78
2023/10/10 17:18:49;;;;;;;25.23;5.30;;;;;;;;;;6246709;28;20289;-79
2023/10/10 17:21:58;;;;;;;25.35;6.30;;;;;;;;;;6219641;28;20042;-78
2023/10/10 17:25:00;;;;;;;30.02;6.78;;;;;;;;;;6223800;28;20054;-77
2023/10/10 17:28:05;;;;;;;24.92;7.07;;;;;;;;;;6231284;28;20121;-79
2023/10/10 17:31:07;;;;;;;27.08;7.32;;;;;;;;;;6228557;28;20045;-78
2023/10/10 17:34:14;;;;;;;18.88;7.07;;;;;;;;;;6223908;28;20064;-77
2023/10/10 17:37:16;;;;;;;25.45;6.38;;;;;;;;;;6224480;28;20046;-78
2023/10/10 17:40:20;;;;;;;36.43;9.30;;;;;;;;;;6224772;28;20112;-77
2023/10/10 17:43:23;;;;;;;30.02;9.85;;;;;;;;;;6227540;28;20048;-78
2023/10/10 17:46:24;;;;;;;26.73;10.30;;;;;;;;;;6231511;28;20103;-80
2023/10/10 17:49:26;;;;;;;29.80;10.10;;;;;;;;;;6224258;28;20054;-77
2023/10/10 17:52:28;;;;;;;23.75;8.70;;;;;;;;;;6226908;28;20156;-78
2023/10/10 17:55:30;;;;;;;23.48;8.07;;;;;;;;;;6228688;28;20049;-79
2023/10/10 17:58:33;;;;;;;19.40;6.90;;;;;;;;;;6223313;28;20054;-77
2023/10/10 18:01:37;;;;;;;18.98;7.38;;;;;;;;;;6223171;28;20065;-78
2023/10/10 18:04:41;;;;;;;22.88;5.75;;;;;;;;;;6232576;28;20058;-79
2023/10/10 18:07:44;;;;;;;15.43;6.70;;;;;;;;;;6232540;28;20238;-80
2023/10/10 18:10:47;;;;;;;18.15;5.18;;;;;;;;;;6230205;28;20353;-79
2023/10/10 18:13:50;;;;;;;;;;;;;;;;;;6235247;28;20069;-77
2023/10/10 18:16:52;;;;;;;22.75;7.25;;;;;;;;;;6232783;28;19949;-78
2023/10/10 18:19:56;;;;;;;36.75;15.07;;;;;;;;;;6225768;28;20357;-78
2023/10/10 18:22:58;;;;;;;13.07;6.38;;;;;;;;;;6227294;28;20050;-79
2023/10/10 18:26:00;;;;;;;25.13;9.88;;;;;;;;;;6226554;28;20054;-78
2023/10/10 18:29:04;;;;;;;16.38;6.95;;;;;;;;;;6232895;28;20053;-78
2023/10/10 18:32:06;;;;;;;15.82;6.90;;;;;;;;;;6230414;28;20052;-80
2023/10/10 18:35:09;;;;;;;14.80;6.22;;;;;;;;;;6235291;28;20057;-79
2023/10/10 18:38:10;;;;;;;14.13;6.15;;;;;;;;;;6253094;28;20399;-78
2023/10/10 18:41:14;;;;;;;18.38;6.55;;;;;;;;;;6254285;28;20332;-79
2023/10/10 18:44:17;;;;;;;16.05;6.03;;;;;;;;;;6250949;28;20123;-77
2023/10/10 18:47:18;;;;;;;;;;;;;;;;;;6253638;28;20054;-76
2023/10/10 18:50:21;;;;;;;9.85;5.43;;;;;;;;;;6256135;28;19924;-76
2023/10/10 18:53:26;;;;;;;11.98;5.60;;;;;;;;;;6256043;28;20050;-76
2023/10/10 18:56:27;;;;;;;22.30;5.80;;;;;;;;;;6251714;28;20061;-77
2023/10/10 18:59:32;;;;;;;15.68;6.35;;;;;;;;;;6247964;28;20065;-77
2023/10/10 19:02:33;;;;;;;12.10;5.50;;;;;;;;;;6255275;28;20127;-76
2023/10/10 19:05:35;;;;;;;11.32;5.20;;;;;;;;;;6257572;28;20061;-77
2023/10/10 19:08:37;;;;;;;14.07;5.97;;;;;;;;;;6258008;28;20066;-77
2023/10/10 19:11:39;;;;;;;12.07;6.15;;;;;;;;;;6255353;28;20262;-76
2023/10/10 19:14:44;;;;;;;10.38;5.10;;;;;;;;;;6250822;28;20069;-77
2023/10/10 19:17:47;;;;;;;12.85;5.72;;;;;;;;;;6251027;28;20054;-76
2023/10/10 19:20:49;;;;;;;11.27;6.00;;;;;;;;;;6259373;28;20103;-76
2023/10/10 19:23:52;;;;;;;14.45;5.97;;;;;;;;;;6253460;28;20269;-77
2023/10/10 19:26:54;;;;;;;13.38;5.18;;;;;;;;;;6258963;28;20053;-77
2023/10/10 19:29:57;;;;;;;10.68;5.80;;;;;;;;;;6256772;28;20068;-76
2023/10/10 19:32:58;;;;;;;13.43;5.32;;;;;;;;;;6251832;28;20051;-75
2023/10/10 19:36:01;;;;;;;11.18;5.32;;;;;;;;;;6250138;28;20254;-76
2023/10/10 19:39:06;;;;;;;13.90;5.78;;;;;;;;;;6255364;28;20060;-76
2023/10/10 19:42:08;;;;;;;14.00;5.78;;;;;;;;;;6255355;28;20049;-76
2023/10/10 19:45:17;;;;;;;12.88;5.90;;;;;;;;;;6258488;28;20045;-75
2023/10/10 19:48:19;;;;;;;13.25;6.00;;;;;;;;;;6251740;28;20062;-77
2023/10/10 19:51:21;;;;;;;14.02;5.75;;;;;;;;;;6254271;28;20125;-77
2023/10/10 19:54:23;;;;;;;12.87;5.57;;;;;;;;;;6248727;28;20048;-78
2023/10/10 19:57:25;;;;;;;10.07;5.80;;;;;;;;;;6251568;28;20100;-76
2023/10/10 20:00:28;;;;;;;14.95;6.35;;;;;;;;;;6255641;28;20202;-78
2023/10/10 20:03:31;;;;;;;12.35;6.20;;;;;;;;;;6256315;28;20057;-77
2023/10/10 20:06:32;;;;;;;13.43;5.68;;;;;;;;;;6258053;28;20056;-77